Airfield :
LOGIN :

Register | Disclaimer

   EN    FR    IT 

 










Legend :    VFR   Marginal VFR   IFR   Intensive IFR   Very Intensive IFR
Visi :
Ceiling :
>= 8 km
>= 3000ft
5 to 8 km
1000 to 3000 ft
1500m to 5 km
500 to 1000 ft
800 to 1500m
200 to 500 ft
< 800m
< 200 ft
Symbols :   Thunderstorms  Fog  Heavy snow  Heavy precipitations  Wind > 20 kt
SIGMETs :     Misc.  Thunderstorms  Icing  Turbulence  Mountain Waves  Volcanic Ashes






- Airport Elevation : 336 ft
- IATA code : GCI


EGJB - Guernsey

CURRENT METAR :
  • 282150Z 29019KT 9999 FEW026 08/00 Q1008

EXPIRED METARs :
  • 282120Z 29019KT 9999 FEW024 07/M00 Q1007
  • 282050Z 28021KT 9999 VCSH FEW018CB 07/01 Q1007
  • 282020Z 30018G30KT 9999 -SHRA FEW018CB BKN022 BKN032 06/02 Q1007
  • 281950Z 28019KT 9999 VCSH FEW012 07/02 Q1007
  • 281920Z 28019KT 9999 FEW012 FEW016CB 07/03 Q1006
  • 281850Z 28023KT 9999 FEW012 FEW016CB 08/01 Q1006

TAF TAF EGJB
Valid from the 28 at 21:00 until the 29 at 06:00 UTC


282003Z 2821/2906 28018KT 9999 FEW015 SCT025
TEMPO 2821/2901 29022G34KT
PROB30
TEMPO 2821/2906 8000 SHRA BKN015
ATIS : +44 1481 238 957



MET'MAP, your aeronautical weather chart ! - Copyright ORBIFLY December 2007 - Disclaimer

ORBIFLY MET'MAP TEAM :

Programming & Development : Alexandra Zaïnal
Concept & original design : Baudouin d'Aumeries
Assistance for programming : Marc-Olivier Méhu
Technical & hardware support : Manuel Goepfert

Contact : metmap@orbifly.com




SOURCES & CREDITS :

   NOAA